sensor_id;sensor_type;location;lat;lon;timestamp;P1;durP1;ratioP1;P2;durP2;ratioP2
70213;SDS011;60138;55.808;37.078;2023-12-29T00:00:42;5.75;;;3.95;;
70213;SDS011;60138;55.808;37.078;2023-12-29T00:10:13;5.57;;;4.78;;
70213;SDS011;60138;55.808;37.078;2023-12-29T00:16:49;5.50;;;4.93;;
70213;SDS011;60138;55.808;37.078;2023-12-29T00:19:18;4.97;;;4.47;;
70213;SDS011;60138;55.808;37.078;2023-12-29T01:08:36;6.63;;;5.10;;
70213;SDS011;60138;55.808;37.078;2023-12-29T01:11:02;7.82;;;6.63;;
70213;SDS011;60138;55.808;37.078;2023-12-29T01:13:28;6.82;;;5.68;;
70213;SDS011;60138;55.808;37.078;2023-12-29T01:15:54;7.22;;;5.72;;
70213;SDS011;60138;55.808;37.078;2023-12-29T01:18:20;9.17;;;5.60;;
70213;SDS011;60138;55.808;37.078;2023-12-29T01:20:46;7.75;;;6.22;;
70213;SDS011;60138;55.808;37.078;2023-12-29T01:23:12;7.37;;;5.53;;
70213;SDS011;60138;55.808;37.078;2023-12-29T01:25:37;7.97;;;6.35;;
70213;SDS011;60138;55.808;37.078;2023-12-29T01:28:03;8.80;;;6.17;;
70213;SDS011;60138;55.808;37.078;2023-12-29T01:30:29;9.40;;;5.75;;
70213;SDS011;60138;55.808;37.078;2023-12-29T01:32:55;6.30;;;5.47;;
70213;SDS011;60138;55.808;37.078;2023-12-29T01:35:21;8.90;;;6.13;;
70213;SDS011;60138;55.808;37.078;2023-12-29T01:37:47;8.07;;;6.63;;
70213;SDS011;60138;55.808;37.078;2023-12-29T01:40:13;7.30;;;5.93;;
70213;SDS011;60138;55.808;37.078;2023-12-29T01:42:38;8.48;;;5.43;;
70213;SDS011;60138;55.808;37.078;2023-12-29T01:45:05;7.37;;;6.57;;
70213;SDS011;60138;55.808;37.078;2023-12-29T01:47:34;7.85;;;5.43;;
70213;SDS011;60138;55.808;37.078;2023-12-29T01:50:00;8.48;;;6.85;;
70213;SDS011;60138;55.808;37.078;2023-12-29T01:52:27;7.40;;;4.77;;
70213;SDS011;60138;55.808;37.078;2023-12-29T01:54:53;7.43;;;5.47;;
70213;SDS011;60138;55.808;37.078;2023-12-29T01:57:19;7.35;;;5.35;;
70213;SDS011;60138;55.808;37.078;2023-12-29T01:59:45;7.43;;;5.57;;
70213;SDS011;60138;55.808;37.078;2023-12-29T02:02:12;7.03;;;5.13;;
70213;SDS011;60138;55.808;37.078;2023-12-29T02:04:38;6.68;;;6.07;;
70213;SDS011;60138;55.808;37.078;2023-12-29T02:07:07;8.88;;;6.45;;
70213;SDS011;60138;55.808;37.078;2023-12-29T02:09:33;8.63;;;5.22;;
70213;SDS011;60138;55.808;37.078;2023-12-29T02:12:02;8.00;;;6.85;;
70213;SDS011;60138;55.808;37.078;2023-12-29T02:14:29;6.97;;;5.63;;
70213;SDS011;60138;55.808;37.078;2023-12-29T02:19:49;6.55;;;4.88;;
70213;SDS011;60138;55.808;37.078;2023-12-29T02:22:15;6.18;;;5.40;;
70213;SDS011;60138;55.808;37.078;2023-12-29T02:24:50;8.10;;;5.53;;
70213;SDS011;60138;55.808;37.078;2023-12-29T02:33:04;6.90;;;5.45;;
70213;SDS011;60138;55.808;37.078;2023-12-29T02:35:35;6.95;;;5.35;;
70213;SDS011;60138;55.808;37.078;2023-12-29T02:38:07;7.07;;;5.25;;
70213;SDS011;60138;55.808;37.078;2023-12-29T02:40:33;7.75;;;5.45;;
70213;SDS011;60138;55.808;37.078;2023-12-29T02:43:00;6.60;;;5.20;;
70213;SDS011;60138;55.808;37.078;2023-12-29T02:45:26;8.43;;;6.05;;
70213;SDS011;60138;55.808;37.078;2023-12-29T02:47:53;8.38;;;5.38;;
70213;SDS011;60138;55.808;37.078;2023-12-29T02:50:19;8.00;;;6.03;;
70213;SDS011;60138;55.808;37.078;2023-12-29T02:52:45;6.60;;;5.55;;
70213;SDS011;60138;55.808;37.078;2023-12-29T02:55:11;6.73;;;5.27;;
70213;SDS011;60138;55.808;37.078;2023-12-29T02:57:37;6.47;;;4.78;;
70213;SDS011;60138;55.808;37.078;2023-12-29T03:00:04;7.05;;;5.30;;
70213;SDS011;60138;55.808;37.078;2023-12-29T03:02:31;7.37;;;5.03;;
70213;SDS011;60138;55.808;37.078;2023-12-29T03:04:57;6.13;;;5.25;;
70213;SDS011;60138;55.808;37.078;2023-12-29T03:07:23;6.85;;;5.75;;
70213;SDS011;60138;55.808;37.078;2023-12-29T03:09:49;7.35;;;5.18;;
70213;SDS011;60138;55.808;37.078;2023-12-29T03:12:17;6.00;;;4.57;;
70213;SDS011;60138;55.808;37.078;2023-12-29T03:14:43;6.05;;;5.40;;
70213;SDS011;60138;55.808;37.078;2023-12-29T03:17:10;6.35;;;5.07;;
70213;SDS011;60138;55.808;37.078;2023-12-29T03:19:37;6.60;;;4.65;;
70213;SDS011;60138;55.808;37.078;2023-12-29T03:22:03;6.03;;;4.88;;
70213;SDS011;60138;55.808;37.078;2023-12-29T03:24:29;7.23;;;5.07;;
70213;SDS011;60138;55.808;37.078;2023-12-29T03:26:56;6.40;;;4.40;;
70213;SDS011;60138;55.808;37.078;2023-12-29T03:29:22;6.25;;;4.63;;
70213;SDS011;60138;55.808;37.078;2023-12-29T03:31:48;5.10;;;4.23;;
70213;SDS011;60138;55.808;37.078;2023-12-29T03:34:13;5.28;;;4.78;;
70213;SDS011;60138;55.808;37.078;2023-12-29T03:36:39;6.53;;;5.20;;
70213;SDS011;60138;55.808;37.078;2023-12-29T03:39:05;4.80;;;3.80;;
70213;SDS011;60138;55.808;37.078;2023-12-29T03:41:31;6.80;;;4.47;;
70213;SDS011;60138;55.808;37.078;2023-12-29T03:43:56;5.97;;;4.72;;
70213;SDS011;60138;55.808;37.078;2023-12-29T03:46:22;6.33;;;4.50;;
70213;SDS011;60138;55.808;37.078;2023-12-29T03:48:50;7.28;;;4.25;;
70213;SDS011;60138;55.808;37.078;2023-12-29T03:51:16;7.10;;;5.13;;
70213;SDS011;60138;55.808;37.078;2023-12-29T03:53:43;8.80;;;5.32;;
70213;SDS011;60138;55.808;37.078;2023-12-29T03:56:12;5.55;;;4.05;;
70213;SDS011;60138;55.808;37.078;2023-12-29T03:58:41;7.30;;;4.65;;
70213;SDS011;60138;55.808;37.078;2023-12-29T04:01:14;7.05;;;4.78;;
70213;SDS011;60138;55.808;37.078;2023-12-29T04:03:41;6.53;;;4.20;;
70213;SDS011;60138;55.808;37.078;2023-12-29T04:06:07;6.28;;;5.00;;
70213;SDS011;60138;55.808;37.078;2023-12-29T04:08:34;6.00;;;4.85;;
70213;SDS011;60138;55.808;37.078;2023-12-29T04:11:01;7.77;;;5.07;;
70213;SDS011;60138;55.808;37.078;2023-12-29T04:13:29;6.88;;;4.90;;
70213;SDS011;60138;55.808;37.078;2023-12-29T04:15:55;6.25;;;4.47;;
70213;SDS011;60138;55.808;37.078;2023-12-29T04:18:21;9.45;;;5.93;;
70213;SDS011;60138;55.808;37.078;2023-12-29T04:20:48;8.65;;;4.93;;
70213;SDS011;60138;55.808;37.078;2023-12-29T04:23:14;7.95;;;4.50;;
70213;SDS011;60138;55.808;37.078;2023-12-29T04:25:40;6.07;;;4.57;;
70213;SDS011;60138;55.808;37.078;2023-12-29T04:28:08;7.88;;;4.47;;
70213;SDS011;60138;55.808;37.078;2023-12-29T04:30:34;6.72;;;5.15;;
70213;SDS011;60138;55.808;37.078;2023-12-29T04:33:00;6.57;;;4.85;;
70213;SDS011;60138;55.808;37.078;2023-12-29T04:35:26;8.32;;;5.18;;
70213;SDS011;60138;55.808;37.078;2023-12-29T04:37:52;7.65;;;4.88;;
70213;SDS011;60138;55.808;37.078;2023-12-29T04:40:18;6.53;;;5.30;;
70213;SDS011;60138;55.808;37.078;2023-12-29T04:42:44;7.53;;;5.40;;
70213;SDS011;60138;55.808;37.078;2023-12-29T04:45:10;8.30;;;5.07;;
70213;SDS011;60138;55.808;37.078;2023-12-29T04:47:37;7.07;;;6.00;;
70213;SDS011;60138;55.808;37.078;2023-12-29T04:50:03;7.72;;;5.72;;
70213;SDS011;60138;55.808;37.078;2023-12-29T04:52:30;6.45;;;4.75;;
70213;SDS011;60138;55.808;37.078;2023-12-29T04:54:55;8.60;;;5.63;;
70213;SDS011;60138;55.808;37.078;2023-12-29T04:57:21;6.45;;;4.72;;
70213;SDS011;60138;55.808;37.078;2023-12-29T04:59:47;7.83;;;5.87;;
70213;SDS011;60138;55.808;37.078;2023-12-29T05:02:13;7.47;;;5.00;;
70213;SDS011;60138;55.808;37.078;2023-12-29T05:04:39;9.40;;;5.97;;
70213;SDS011;60138;55.808;37.078;2023-12-29T05:07:05;6.85;;;5.95;;
70213;SDS011;60138;55.808;37.078;2023-12-29T05:09:33;6.85;;;4.70;;
70213;SDS011;60138;55.808;37.078;2023-12-29T05:11:59;7.53;;;5.30;;
70213;SDS011;60138;55.808;37.078;2023-12-29T05:14:24;8.75;;;5.57;;
70213;SDS011;60138;55.808;37.078;2023-12-29T05:16:50;9.98;;;4.80;;
70213;SDS011;60138;55.808;37.078;2023-12-29T05:19:16;10.60;;;6.13;;
70213;SDS011;60138;55.808;37.078;2023-12-29T05:21:42;8.57;;;5.90;;
70213;SDS011;60138;55.808;37.078;2023-12-29T05:24:08;8.13;;;5.10;;
70213;SDS011;60138;55.808;37.078;2023-12-29T05:26:33;8.13;;;5.57;;
70213;SDS011;60138;55.808;37.078;2023-12-29T05:28:59;8.07;;;6.10;;
70213;SDS011;60138;55.808;37.078;2023-12-29T05:31:25;7.72;;;5.68;;
70213;SDS011;60138;55.808;37.078;2023-12-29T05:33:51;8.23;;;5.40;;
70213;SDS011;60138;55.808;37.078;2023-12-29T05:36:17;7.55;;;4.90;;
70213;SDS011;60138;55.808;37.078;2023-12-29T05:38:45;8.80;;;6.00;;
70213;SDS011;60138;55.808;37.078;2023-12-29T05:41:12;8.75;;;5.75;;
70213;SDS011;60138;55.808;37.078;2023-12-29T05:43:39;7.57;;;5.60;;
70213;SDS011;60138;55.808;37.078;2023-12-29T05:46:11;7.97;;;5.93;;
70213;SDS011;60138;55.808;37.078;2023-12-29T05:48:40;8.18;;;5.20;;
70213;SDS011;60138;55.808;37.078;2023-12-29T05:51:10;8.82;;;5.10;;
70213;SDS011;60138;55.808;37.078;2023-12-29T05:53:39;7.50;;;6.55;;
70213;SDS011;60138;55.808;37.078;2023-12-29T05:56:05;8.18;;;5.85;;
70213;SDS011;60138;55.808;37.078;2023-12-29T05:58:31;11.27;;;5.18;;
70213;SDS011;60138;55.808;37.078;2023-12-29T06:00:57;7.13;;;5.47;;
70213;SDS011;60138;55.808;37.078;2023-12-29T06:03:22;9.32;;;5.90;;
70213;SDS011;60138;55.808;37.078;2023-12-29T06:05:48;7.53;;;6.05;;
70213;SDS011;60138;55.808;37.078;2023-12-29T06:08:14;7.57;;;5.50;;
70213;SDS011;60138;55.808;37.078;2023-12-29T06:10:40;13.23;;;6.97;;
70213;SDS011;60138;55.808;37.078;2023-12-29T06:13:09;8.13;;;6.60;;
70213;SDS011;60138;55.808;37.078;2023-12-29T06:15:35;7.55;;;5.35;;
70213;SDS011;60138;55.808;37.078;2023-12-29T06:18:01;8.27;;;5.43;;
70213;SDS011;60138;55.808;37.078;2023-12-29T06:20:27;8.32;;;6.18;;
70213;SDS011;60138;55.808;37.078;2023-12-29T06:22:55;8.47;;;5.63;;
70213;SDS011;60138;55.808;37.078;2023-12-29T06:25:21;9.65;;;6.30;;
70213;SDS011;60138;55.808;37.078;2023-12-29T06:27:47;10.57;;;5.63;;
70213;SDS011;60138;55.808;37.078;2023-12-29T06:30:15;7.33;;;6.37;;
70213;SDS011;60138;55.808;37.078;2023-12-29T06:32:41;10.10;;;6.18;;
70213;SDS011;60138;55.808;37.078;2023-12-29T06:35:07;8.93;;;6.75;;
70213;SDS011;60138;55.808;37.078;2023-12-29T06:37:34;8.27;;;5.60;;
70213;SDS011;60138;55.808;37.078;2023-12-29T06:39:59;8.75;;;6.60;;
70213;SDS011;60138;55.808;37.078;2023-12-29T06:42:25;8.13;;;6.57;;
70213;SDS011;60138;55.808;37.078;2023-12-29T06:44:51;8.57;;;5.38;;
70213;SDS011;60138;55.808;37.078;2023-12-29T06:47:17;9.25;;;6.88;;
70213;SDS011;60138;55.808;37.078;2023-12-29T06:49:43;8.30;;;6.50;;
70213;SDS011;60138;55.808;37.078;2023-12-29T06:52:08;10.07;;;5.80;;
70213;SDS011;60138;55.808;37.078;2023-12-29T06:54:34;10.10;;;6.93;;
70213;SDS011;60138;55.808;37.078;2023-12-29T06:57:00;8.38;;;5.18;;
70213;SDS011;60138;55.808;37.078;2023-12-29T06:59:26;11.07;;;7.00;;
70213;SDS011;60138;55.808;37.078;2023-12-29T07:01:52;9.45;;;5.95;;
70213;SDS011;60138;55.808;37.078;2023-12-29T07:04:17;7.88;;;6.57;;
70213;SDS011;60138;55.808;37.078;2023-12-29T07:06:43;9.93;;;7.17;;
70213;SDS011;60138;55.808;37.078;2023-12-29T07:09:09;9.30;;;6.18;;
70213;SDS011;60138;55.808;37.078;2023-12-29T07:11:36;8.57;;;6.30;;
70213;SDS011;60138;55.808;37.078;2023-12-29T07:14:02;9.65;;;5.93;;
70213;SDS011;60138;55.808;37.078;2023-12-29T07:16:28;10.63;;;6.10;;
70213;SDS011;60138;55.808;37.078;2023-12-29T07:18:55;10.18;;;6.68;;
70213;SDS011;60138;55.808;37.078;2023-12-29T07:21:21;9.27;;;6.53;;
70213;SDS011;60138;55.808;37.078;2023-12-29T07:23:47;9.70;;;7.30;;
70213;SDS011;60138;55.808;37.078;2023-12-29T07:26:13;9.57;;;5.78;;
70213;SDS011;60138;55.808;37.078;2023-12-29T07:28:39;11.97;;;5.67;;
70213;SDS011;60138;55.808;37.078;2023-12-29T07:31:05;11.48;;;6.85;;
70213;SDS011;60138;55.808;37.078;2023-12-29T07:33:31;11.03;;;7.07;;
70213;SDS011;60138;55.808;37.078;2023-12-29T07:35:56;9.88;;;6.28;;
70213;SDS011;60138;55.808;37.078;2023-12-29T07:38:23;9.00;;;6.18;;
70213;SDS011;60138;55.808;37.078;2023-12-29T07:40:49;11.17;;;6.07;;
70213;SDS011;60138;55.808;37.078;2023-12-29T07:43:15;8.90;;;6.78;;
70213;SDS011;60138;55.808;37.078;2023-12-29T07:45:41;10.07;;;6.45;;
70213;SDS011;60138;55.808;37.078;2023-12-29T07:48:07;8.10;;;5.50;;
70213;SDS011;60138;55.808;37.078;2023-12-29T07:50:33;8.00;;;6.10;;
70213;SDS011;60138;55.808;37.078;2023-12-29T07:52:59;10.33;;;6.67;;
70213;SDS011;60138;55.808;37.078;2023-12-29T07:55:24;8.88;;;6.55;;
70213;SDS011;60138;55.808;37.078;2023-12-29T07:57:50;8.13;;;6.20;;
70213;SDS011;60138;55.808;37.078;2023-12-29T08:00:16;11.32;;;6.93;;
70213;SDS011;60138;55.808;37.078;2023-12-29T08:02:43;13.13;;;5.93;;
70213;SDS011;60138;55.808;37.078;2023-12-29T08:05:09;7.77;;;5.97;;
70213;SDS011;60138;55.808;37.078;2023-12-29T08:07:37;8.95;;;5.60;;
70213;SDS011;60138;55.808;37.078;2023-12-29T08:10:04;11.95;;;6.97;;
70213;SDS011;60138;55.808;37.078;2023-12-29T08:12:30;11.00;;;6.13;;
70213;SDS011;60138;55.808;37.078;2023-12-29T08:14:56;10.13;;;6.88;;
70213;SDS011;60138;55.808;37.078;2023-12-29T08:17:22;10.63;;;7.50;;
70213;SDS011;60138;55.808;37.078;2023-12-29T08:19:48;9.43;;;6.20;;
70213;SDS011;60138;55.808;37.078;2023-12-29T08:22:13;8.37;;;5.80;;
70213;SDS011;60138;55.808;37.078;2023-12-29T08:24:42;11.40;;;7.00;;
70213;SDS011;60138;55.808;37.078;2023-12-29T08:27:08;9.98;;;6.43;;
70213;SDS011;60138;55.808;37.078;2023-12-29T08:29:34;11.23;;;6.43;;
70213;SDS011;60138;55.808;37.078;2023-12-29T08:32:00;8.60;;;6.13;;
70213;SDS011;60138;55.808;37.078;2023-12-29T08:34:26;9.00;;;6.18;;
70213;SDS011;60138;55.808;37.078;2023-12-29T08:36:52;9.17;;;5.87;;
70213;SDS011;60138;55.808;37.078;2023-12-29T08:39:18;9.68;;;6.50;;
70213;SDS011;60138;55.808;37.078;2023-12-29T08:41:43;11.13;;;6.82;;
70213;SDS011;60138;55.808;37.078;2023-12-29T08:44:09;9.77;;;6.47;;
70213;SDS011;60138;55.808;37.078;2023-12-29T08:46:35;9.43;;;6.20;;
70213;SDS011;60138;55.808;37.078;2023-12-29T08:49:01;10.80;;;6.40;;
70213;SDS011;60138;55.808;37.078;2023-12-29T08:51:26;9.53;;;6.80;;
70213;SDS011;60138;55.808;37.078;2023-12-29T08:53:52;9.15;;;5.38;;
70213;SDS011;60138;55.808;37.078;2023-12-29T08:56:18;11.93;;;6.43;;
70213;SDS011;60138;55.808;37.078;2023-12-29T08:58:44;10.60;;;7.65;;
70213;SDS011;60138;55.808;37.078;2023-12-29T09:01:10;10.47;;;6.80;;
70213;SDS011;60138;55.808;37.078;2023-12-29T09:03:35;10.23;;;7.10;;
70213;SDS011;60138;55.808;37.078;2023-12-29T09:06:01;12.27;;;6.90;;
70213;SDS011;60138;55.808;37.078;2023-12-29T09:08:27;10.70;;;6.23;;
70213;SDS011;60138;55.808;37.078;2023-12-29T09:10:53;10.25;;;7.13;;
70213;SDS011;60138;55.808;37.078;2023-12-29T09:13:19;11.77;;;6.38;;
70213;SDS011;60138;55.808;37.078;2023-12-29T09:15:45;10.73;;;7.13;;
70213;SDS011;60138;55.808;37.078;2023-12-29T09:18:11;11.15;;;6.72;;
70213;SDS011;60138;55.808;37.078;2023-12-29T09:20:36;11.77;;;7.70;;
70213;SDS011;60138;55.808;37.078;2023-12-29T09:23:02;12.40;;;7.00;;
70213;SDS011;60138;55.808;37.078;2023-12-29T09:25:28;10.53;;;6.43;;
70213;SDS011;60138;55.808;37.078;2023-12-29T09:27:54;14.30;;;7.22;;
70213;SDS011;60138;55.808;37.078;2023-12-29T09:30:20;9.93;;;6.73;;
70213;SDS011;60138;55.808;37.078;2023-12-29T09:32:45;12.98;;;7.00;;
70213;SDS011;60138;55.808;37.078;2023-12-29T09:35:12;10.43;;;6.78;;
70213;SDS011;60138;55.808;37.078;2023-12-29T09:37:38;11.47;;;6.47;;
70213;SDS011;60138;55.808;37.078;2023-12-29T09:40:04;13.98;;;7.22;;
70213;SDS011;60138;55.808;37.078;2023-12-29T09:42:31;12.90;;;7.40;;
70213;SDS011;60138;55.808;37.078;2023-12-29T09:44:58;14.10;;;6.85;;
70213;SDS011;60138;55.808;37.078;2023-12-29T09:47:30;15.80;;;7.45;;
70213;SDS011;60138;55.808;37.078;2023-12-29T09:50:00;9.93;;;7.05;;
70213;SDS011;60138;55.808;37.078;2023-12-29T09:52:27;10.50;;;7.55;;
70213;SDS011;60138;55.808;37.078;2023-12-29T09:54:53;9.52;;;6.28;;
70213;SDS011;60138;55.808;37.078;2023-12-29T09:57:19;10.10;;;6.50;;
70213;SDS011;60138;55.808;37.078;2023-12-29T09:59:45;11.00;;;7.60;;
70213;SDS011;60138;55.808;37.078;2023-12-29T10:02:14;10.85;;;7.60;;
70213;SDS011;60138;55.808;37.078;2023-12-29T10:04:41;10.85;;;7.72;;
70213;SDS011;60138;55.808;37.078;2023-12-29T10:07:07;11.38;;;7.38;;
70213;SDS011;60138;55.808;37.078;2023-12-29T10:09:37;15.75;;;6.65;;
70213;SDS011;60138;55.808;37.078;2023-12-29T10:12:07;12.48;;;7.43;;
70213;SDS011;60138;55.808;37.078;2023-12-29T10:17:16;13.45;;;6.60;;
70213;SDS011;60138;55.808;37.078;2023-12-29T10:19:49;10.38;;;6.90;;
70213;SDS011;60138;55.808;37.078;2023-12-29T10:22:30;12.07;;;6.97;;
70213;SDS011;60138;55.808;37.078;2023-12-29T10:25:06;10.02;;;6.47;;
70213;SDS011;60138;55.808;37.078;2023-12-29T10:27:33;9.63;;;6.53;;
70213;SDS011;60138;55.808;37.078;2023-12-29T10:29:59;10.80;;;7.53;;
70213;SDS011;60138;55.808;37.078;2023-12-29T10:32:25;10.87;;;7.20;;
70213;SDS011;60138;55.808;37.078;2023-12-29T10:34:51;11.23;;;7.35;;
70213;SDS011;60138;55.808;37.078;2023-12-29T10:37:33;13.65;;;8.32;;
70213;SDS011;60138;55.808;37.078;2023-12-29T10:39:58;9.45;;;6.95;;
70213;SDS011;60138;55.808;37.078;2023-12-29T10:42:24;9.02;;;6.28;;
70213;SDS011;60138;55.808;37.078;2023-12-29T10:45:04;11.33;;;6.27;;
70213;SDS011;60138;55.808;37.078;2023-12-29T10:47:34;11.27;;;7.35;;
70213;SDS011;60138;55.808;37.078;2023-12-29T10:50:00;8.13;;;6.43;;
70213;SDS011;60138;55.808;37.078;2023-12-29T10:52:29;12.50;;;8.05;;
70213;SDS011;60138;55.808;37.078;2023-12-29T10:55:09;11.38;;;7.20;;
70213;SDS011;60138;55.808;37.078;2023-12-29T10:57:36;11.32;;;7.65;;
70213;SDS011;60138;55.808;37.078;2023-12-29T11:00:03;12.63;;;6.93;;
70213;SDS011;60138;55.808;37.078;2023-12-29T11:02:31;12.93;;;6.78;;
70213;SDS011;60138;55.808;37.078;2023-12-29T11:05:07;10.03;;;6.73;;
70213;SDS011;60138;55.808;37.078;2023-12-29T11:07:35;12.23;;;7.13;;
70213;SDS011;60138;55.808;37.078;2023-12-29T11:10:02;11.27;;;7.07;;
70213;SDS011;60138;55.808;37.078;2023-12-29T11:12:37;9.32;;;6.18;;
70213;SDS011;60138;55.808;37.078;2023-12-29T11:15:04;9.43;;;6.67;;
70213;SDS011;60138;55.808;37.078;2023-12-29T11:17:31;11.68;;;7.65;;
70213;SDS011;60138;55.808;37.078;2023-12-29T11:19:59;10.50;;;7.78;;
70213;SDS011;60138;55.808;37.078;2023-12-29T11:22:27;10.52;;;7.32;;
70213;SDS011;60138;55.808;37.078;2023-12-29T11:24:57;10.05;;;7.47;;
70213;SDS011;60138;55.808;37.078;2023-12-29T11:27:24;16.20;;;7.80;;
70213;SDS011;60138;55.808;37.078;2023-12-29T11:29:52;11.55;;;8.05;;
70213;SDS011;60138;55.808;37.078;2023-12-29T11:32:20;10.10;;;6.17;;
70213;SDS011;60138;55.808;37.078;2023-12-29T11:34:52;11.00;;;8.45;;
70213;SDS011;60138;55.808;37.078;2023-12-29T11:37:28;12.30;;;8.45;;
70213;SDS011;60138;55.808;37.078;2023-12-29T11:42:47;16.15;;;8.23;;
70213;SDS011;60138;55.808;37.078;2023-12-29T11:45:38;15.35;;;8.23;;
70213;SDS011;60138;55.808;37.078;2023-12-29T11:48:03;9.60;;;6.73;;
70213;SDS011;60138;55.808;37.078;2023-12-29T11:50:33;12.40;;;8.65;;
70213;SDS011;60138;55.808;37.078;2023-12-29T11:53:00;11.68;;;7.68;;
70213;SDS011;60138;55.808;37.078;2023-12-29T11:55:38;13.83;;;7.30;;
70213;SDS011;60138;55.808;37.078;2023-12-29T11:58:22;14.90;;;8.82;;
70213;SDS011;60138;55.808;37.078;2023-12-29T12:00:49;11.55;;;7.07;;
70213;SDS011;60138;55.808;37.078;2023-12-29T12:03:26;12.07;;;7.73;;
70213;SDS011;60138;55.808;37.078;2023-12-29T12:05:53;11.38;;;7.45;;
70213;SDS011;60138;55.808;37.078;2023-12-29T12:08:38;14.02;;;7.10;;
70213;SDS011;60138;55.808;37.078;2023-12-29T12:13:55;10.63;;;7.55;;
70213;SDS011;60138;55.808;37.078;2023-12-29T12:19:13;10.45;;;7.15;;
70213;SDS011;60138;55.808;37.078;2023-12-29T12:21:39;12.83;;;8.10;;
70213;SDS011;60138;55.808;37.078;2023-12-29T12:24:06;11.95;;;7.90;;
70213;SDS011;60138;55.808;37.078;2023-12-29T12:26:33;12.63;;;8.77;;
70213;SDS011;60138;55.808;37.078;2023-12-29T12:29:01;11.98;;;7.70;;
70213;SDS011;60138;55.808;37.078;2023-12-29T12:31:27;15.48;;;7.93;;
70213;SDS011;60138;55.808;37.078;2023-12-29T12:33:56;13.10;;;8.20;;
70213;SDS011;60138;55.808;37.078;2023-12-29T12:36:25;11.95;;;8.38;;
70213;SDS011;60138;55.808;37.078;2023-12-29T12:38:52;8.65;;;7.07;;
70213;SDS011;60138;55.808;37.078;2023-12-29T12:41:19;10.15;;;6.90;;
70213;SDS011;60138;55.808;37.078;2023-12-29T12:43:49;8.98;;;6.13;;
70213;SDS011;60138;55.808;37.078;2023-12-29T12:46:35;10.00;;;6.70;;
70213;SDS011;60138;55.808;37.078;2023-12-29T12:49:17;11.70;;;6.88;;
70213;SDS011;60138;55.808;37.078;2023-12-29T12:51:43;9.95;;;6.85;;
70213;SDS011;60138;55.808;37.078;2023-12-29T12:54:09;11.65;;;8.18;;
70213;SDS011;60138;55.808;37.078;2023-12-29T12:56:36;11.18;;;7.43;;
70213;SDS011;60138;55.808;37.078;2023-12-29T12:59:02;12.68;;;8.35;;
70213;SDS011;60138;55.808;37.078;2023-12-29T13:01:29;13.68;;;8.40;;
70213;SDS011;60138;55.808;37.078;2023-12-29T13:03:59;13.30;;;7.93;;
70213;SDS011;60138;55.808;37.078;2023-12-29T13:06:25;10.70;;;7.15;;
70213;SDS011;60138;55.808;37.078;2023-12-29T13:08:51;10.40;;;7.25;;
70213;SDS011;60138;55.808;37.078;2023-12-29T13:11:18;12.68;;;8.57;;
70213;SDS011;60138;55.808;37.078;2023-12-29T13:13:45;13.45;;;8.18;;
70213;SDS011;60138;55.808;37.078;2023-12-29T13:16:10;13.68;;;8.02;;
70213;SDS011;60138;55.808;37.078;2023-12-29T13:18:36;12.63;;;7.63;;
70213;SDS011;60138;55.808;37.078;2023-12-29T13:21:02;12.35;;;8.68;;
70213;SDS011;60138;55.808;37.078;2023-12-29T13:23:28;12.07;;;7.88;;
70213;SDS011;60138;55.808;37.078;2023-12-29T13:25:54;12.10;;;7.83;;
70213;SDS011;60138;55.808;37.078;2023-12-29T13:28:23;10.57;;;7.65;;
70213;SDS011;60138;55.808;37.078;2023-12-29T13:30:49;12.20;;;7.88;;
70213;SDS011;60138;55.808;37.078;2023-12-29T13:33:23;7.18;;;6.07;;
70213;SDS011;60138;55.808;37.078;2023-12-29T13:35:52;11.88;;;8.60;;
70213;SDS011;60138;55.808;37.078;2023-12-29T13:38:25;14.50;;;7.70;;
70213;SDS011;60138;55.808;37.078;2023-12-29T13:41:02;12.10;;;6.37;;
70213;SDS011;60138;55.808;37.078;2023-12-29T13:43:30;11.13;;;8.00;;
70213;SDS011;60138;55.808;37.078;2023-12-29T13:45:59;12.35;;;7.80;;
70213;SDS011;60138;55.808;37.078;2023-12-29T13:48:26;9.15;;;7.35;;
70213;SDS011;60138;55.808;37.078;2023-12-29T13:50:53;13.23;;;8.65;;
70213;SDS011;60138;55.808;37.078;2023-12-29T13:53:20;13.65;;;8.40;;
70213;SDS011;60138;55.808;37.078;2023-12-29T13:55:46;13.50;;;7.20;;
70213;SDS011;60138;55.808;37.078;2023-12-29T13:58:12;12.37;;;8.13;;
70213;SDS011;60138;55.808;37.078;2023-12-29T14:00:41;14.50;;;8.57;;
70213;SDS011;60138;55.808;37.078;2023-12-29T14:03:15;11.45;;;7.63;;
70213;SDS011;60138;55.808;37.078;2023-12-29T14:05:51;13.87;;;9.73;;
70213;SDS011;60138;55.808;37.078;2023-12-29T14:08:30;12.85;;;8.48;;
70213;SDS011;60138;55.808;37.078;2023-12-29T14:11:01;15.75;;;8.98;;
70213;SDS011;60138;55.808;37.078;2023-12-29T14:13:35;12.45;;;7.68;;
70213;SDS011;60138;55.808;37.078;2023-12-29T14:16:06;16.23;;;9.13;;
70213;SDS011;60138;55.808;37.078;2023-12-29T14:21:23;17.75;;;9.02;;
70213;SDS011;60138;55.808;37.078;2023-12-29T14:26:35;14.57;;;7.00;;
70213;SDS011;60138;55.808;37.078;2023-12-29T14:29:02;12.35;;;7.88;;
70213;SDS011;60138;55.808;37.078;2023-12-29T14:31:38;12.35;;;7.57;;
70213;SDS011;60138;55.808;37.078;2023-12-29T14:34:06;14.13;;;9.32;;
70213;SDS011;60138;55.808;37.078;2023-12-29T14:36:33;13.90;;;8.88;;
70213;SDS011;60138;55.808;37.078;2023-12-29T14:38:59;14.38;;;7.25;;
70213;SDS011;60138;55.808;37.078;2023-12-29T14:41:25;16.77;;;7.17;;
70213;SDS011;60138;55.808;37.078;2023-12-29T14:43:52;15.20;;;7.85;;
70213;SDS011;60138;55.808;37.078;2023-12-29T14:46:18;14.40;;;9.05;;
70213;SDS011;60138;55.808;37.078;2023-12-29T14:48:44;15.38;;;9.20;;
70213;SDS011;60138;55.808;37.078;2023-12-29T14:51:10;11.60;;;7.70;;
70213;SDS011;60138;55.808;37.078;2023-12-29T14:53:36;13.43;;;8.07;;
70213;SDS011;60138;55.808;37.078;2023-12-29T14:56:03;14.93;;;7.93;;
70213;SDS011;60138;55.808;37.078;2023-12-29T14:58:29;12.30;;;7.55;;
70213;SDS011;60138;55.808;37.078;2023-12-29T15:00:55;13.52;;;7.28;;
70213;SDS011;60138;55.808;37.078;2023-12-29T15:03:21;12.55;;;7.93;;
70213;SDS011;60138;55.808;37.078;2023-12-29T15:05:47;10.73;;;7.43;;
70213;SDS011;60138;55.808;37.078;2023-12-29T15:08:12;10.95;;;7.05;;
70213;SDS011;60138;55.808;37.078;2023-12-29T15:10:38;10.82;;;6.53;;
70213;SDS011;60138;55.808;37.078;2023-12-29T15:13:06;9.85;;;6.78;;
70213;SDS011;60138;55.808;37.078;2023-12-29T15:15:32;10.97;;;6.63;;
70213;SDS011;60138;55.808;37.078;2023-12-29T15:17:58;15.70;;;7.47;;
70213;SDS011;60138;55.808;37.078;2023-12-29T15:20:24;14.55;;;7.32;;
70213;SDS011;60138;55.808;37.078;2023-12-29T15:22:49;12.90;;;6.57;;
70213;SDS011;60138;55.808;37.078;2023-12-29T15:25:15;12.23;;;8.13;;
70213;SDS011;60138;55.808;37.078;2023-12-29T15:27:41;11.77;;;7.23;;
70213;SDS011;60138;55.808;37.078;2023-12-29T15:30:07;16.83;;;7.63;;
70213;SDS011;60138;55.808;37.078;2023-12-29T15:32:33;12.18;;;7.15;;
70213;SDS011;60138;55.808;37.078;2023-12-29T15:34:59;12.53;;;8.23;;
70213;SDS011;60138;55.808;37.078;2023-12-29T15:37:25;11.32;;;6.57;;
70213;SDS011;60138;55.808;37.078;2023-12-29T15:39:51;12.13;;;7.90;;
70213;SDS011;60138;55.808;37.078;2023-12-29T15:42:17;12.23;;;8.45;;
70213;SDS011;60138;55.808;37.078;2023-12-29T15:44:42;8.80;;;6.37;;
70213;SDS011;60138;55.808;37.078;2023-12-29T15:47:08;12.43;;;7.78;;
70213;SDS011;60138;55.808;37.078;2023-12-29T15:49:37;11.18;;;7.35;;
70213;SDS011;60138;55.808;37.078;2023-12-29T15:52:03;11.70;;;7.70;;